sensor_id;sensor_type;location;lat;lon;timestamp;pressure;altitude;pressure_sealevel;temperature;humidity
11413;BME280;5762;43.256;26.960;2024-02-15T00:01:15;100866.93;;;4.74;100.00
11413;BME280;5762;43.256;26.960;2024-02-15T00:03:43;100867.49;;;4.64;100.00
11413;BME280;5762;43.256;26.960;2024-02-15T00:06:12;100876.42;;;4.67;100.00
11413;BME280;5762;43.256;26.960;2024-02-15T00:08:40;100883.06;;;4.65;100.00
11413;BME280;5762;43.256;26.960;2024-02-15T00:11:09;100888.52;;;4.58;100.00
11413;BME280;5762;43.256;26.960;2024-02-15T00:13:38;100895.52;;;4.59;100.00
11413;BME280;5762;43.256;26.960;2024-02-15T00:16:08;100897.38;;;4.59;100.00
11413;BME280;5762;43.256;26.960;2024-02-15T00:18:38;100910.27;;;4.59;100.00
11413;BME280;5762;43.256;26.960;2024-02-15T00:21:07;100907.16;;;4.53;100.00
11413;BME280;5762;43.256;26.960;2024-02-15T00:23:36;100916.54;;;4.53;100.00
11413;BME280;5762;43.256;26.960;2024-02-15T00:26:04;100916.90;;;4.57;100.00
11413;BME280;5762;43.256;26.960;2024-02-15T00:28:33;100915.72;;;4.53;100.00
11413;BME280;5762;43.256;26.960;2024-02-15T00:31:01;100913.91;;;4.44;100.00
11413;BME280;5762;43.256;26.960;2024-02-15T00:33:30;100919.87;;;4.46;100.00
11413;BME280;5762;43.256;26.960;2024-02-15T00:35:58;100926.44;;;4.41;100.00
11413;BME280;5762;43.256;26.960;2024-02-15T00:38:28;100926.44;;;4.41;100.00
11413;BME280;5762;43.256;26.960;2024-02-15T00:40:56;100927.48;;;4.40;100.00
11413;BME280;5762;43.256;26.960;2024-02-15T00:43:29;100929.48;;;4.45;100.00
11413;BME280;5762;43.256;26.960;2024-02-15T00:45:55;100927.55;;;4.43;100.00
11413;BME280;5762;43.256;26.960;2024-02-15T00:48:23;100932.91;;;4.43;100.00
11413;BME280;5762;43.256;26.960;2024-02-15T00:50:52;100927.84;;;4.44;100.00
11413;BME280;5762;43.256;26.960;2024-02-15T00:53:21;100933.72;;;4.43;100.00
11413;BME280;5762;43.256;26.960;2024-02-15T00:55:50;100925.55;;;4.38;100.00
11413;BME280;5762;43.256;26.960;2024-02-15T00:58:18;100924.50;;;4.39;100.00
11413;BME280;5762;43.256;26.960;2024-02-15T01:00:47;100922.05;;;4.37;100.00
11413;BME280;5762;43.256;26.960;2024-02-15T01:03:15;100926.30;;;4.36;100.00
11413;BME280;5762;43.256;26.960;2024-02-15T01:05:44;100925.18;;;4.34;100.00
11413;BME280;5762;43.256;26.960;2024-02-15T01:08:14;100916.39;;;4.36;100.00
11413;BME280;5762;43.256;26.960;2024-02-15T01:10:43;100911.71;;;4.32;100.00
11413;BME280;5762;43.256;26.960;2024-02-15T01:13:11;100910.38;;;4.32;100.00
11413;BME280;5762;43.256;26.960;2024-02-15T01:15:41;100900.99;;;4.32;100.00
11413;BME280;5762;43.256;26.960;2024-02-15T01:18:10;100902.27;;;4.29;100.00
11413;BME280;5762;43.256;26.960;2024-02-15T01:20:38;100908.15;;;4.29;100.00
11413;BME280;5762;43.256;26.960;2024-02-15T01:23:07;100916.78;;;4.31;100.00
11413;BME280;5762;43.256;26.960;2024-02-15T01:25:35;100912.01;;;4.33;100.00
11413;BME280;5762;43.256;26.960;2024-02-15T01:28:05;100902.92;;;4.34;100.00
11413;BME280;5762;43.256;26.960;2024-02-15T01:30:33;100903.22;;;4.35;100.00
11413;BME280;5762;43.256;26.960;2024-02-15T01:33:03;100899.66;;;4.32;100.00
11413;BME280;5762;43.256;26.960;2024-02-15T01:35:31;100901.22;;;4.30;100.00
11413;BME280;5762;43.256;26.960;2024-02-15T01:37:59;100900.41;;;4.30;100.00
11413;BME280;5762;43.256;26.960;2024-02-15T01:40:28;100898.02;;;4.31;100.00
11413;BME280;5762;43.256;26.960;2024-02-15T01:42:56;100888.50;;;4.26;100.00
11413;BME280;5762;43.256;26.960;2024-02-15T01:45:25;100890.36;;;4.25;100.00
11413;BME280;5762;43.256;26.960;2024-02-15T01:47:54;100903.08;;;4.30;100.00
11413;BME280;5762;43.256;26.960;2024-02-15T01:50:23;100893.41;;;4.29;100.00
11413;BME280;5762;43.256;26.960;2024-02-15T01:52:52;100887.89;;;4.33;100.00
11413;BME280;5762;43.256;26.960;2024-02-15T01:55:22;100882.76;;;4.31;100.00
11413;BME280;5762;43.256;26.960;2024-02-15T01:57:50;100884.39;;;4.32;100.00
11413;BME280;5762;43.256;26.960;2024-02-15T02:00:18;100887.36;;;4.33;100.00
11413;BME280;5762;43.256;26.960;2024-02-15T02:02:46;100881.13;;;4.30;100.00
11413;BME280;5762;43.256;26.960;2024-02-15T02:05:16;100874.13;;;4.29;100.00
11413;BME280;5762;43.256;26.960;2024-02-15T02:07:44;100869.52;;;4.27;100.00
11413;BME280;5762;43.256;26.960;2024-02-15T02:10:13;100864.39;;;4.26;100.00
11413;BME280;5762;43.256;26.960;2024-02-15T02:12:42;100869.31;;;4.20;100.00
11413;BME280;5762;43.256;26.960;2024-02-15T02:15:10;100871.99;;;4.20;100.00
11413;BME280;5762;43.256;26.960;2024-02-15T02:17:38;100870.55;;;4.15;100.00
11413;BME280;5762;43.256;26.960;2024-02-15T02:20:07;100878.59;;;4.15;100.00
11413;BME280;5762;43.256;26.960;2024-02-15T02:22:37;100881.49;;;4.13;100.00
11413;BME280;5762;43.256;26.960;2024-02-15T02:25:07;100888.34;;;4.09;100.00
11413;BME280;5762;43.256;26.960;2024-02-15T02:27:35;100896.31;;;4.07;100.00
11413;BME280;5762;43.256;26.960;2024-02-15T02:30:05;100901.59;;;4.04;100.00
11413;BME280;5762;43.256;26.960;2024-02-15T02:32:35;100902.41;;;4.04;100.00
11413;BME280;5762;43.256;26.960;2024-02-15T02:35:04;100905.09;;;4.04;100.00
11413;BME280;5762;43.256;26.960;2024-02-15T02:37:32;100908.81;;;4.03;100.00
11413;BME280;5762;43.256;26.960;2024-02-15T02:40:01;100914.63;;;4.00;100.00
11413;BME280;5762;43.256;26.960;2024-02-15T02:42:30;100918.94;;;4.01;100.00
11413;BME280;5762;43.256;26.960;2024-02-15T02:44:59;100911.80;;;3.95;100.00
11413;BME280;5762;43.256;26.960;2024-02-15T02:47:28;100917.45;;;3.96;100.00
11413;BME280;5762;43.256;26.960;2024-02-15T02:49:58;100913.44;;;3.96;100.00
11413;BME280;5762;43.256;26.960;2024-02-15T02:52:26;100917.67;;;3.95;100.00
11413;BME280;5762;43.256;26.960;2024-02-15T02:54:56;100924.23;;;3.90;100.00
11413;BME280;5762;43.256;26.960;2024-02-15T02:57:25;100933.08;;;3.90;100.00
11413;BME280;5762;43.256;26.960;2024-02-15T02:59:54;100929.66;;;3.92;100.00
11413;BME280;5762;43.256;26.960;2024-02-15T03:02:23;100931.97;;;3.89;100.00
11413;BME280;5762;43.256;26.960;2024-02-15T03:04:51;100937.98;;;3.93;100.00
11413;BME280;5762;43.256;26.960;2024-02-15T03:07:20;100935.16;;;3.97;100.00
11413;BME280;5762;43.256;26.960;2024-02-15T03:09:49;100938.06;;;3.96;100.00
11413;BME280;5762;43.256;26.960;2024-02-15T03:12:18;100928.31;;;3.92;100.00
11413;BME280;5762;43.256;26.960;2024-02-15T03:14:46;100937.09;;;3.90;100.00
11413;BME280;5762;43.256;26.960;2024-02-15T03:17:15;100938.06;;;3.87;100.00
11413;BME280;5762;43.256;26.960;2024-02-15T03:19:44;100942.75;;;3.82;100.00
11413;BME280;5762;43.256;26.960;2024-02-15T03:22:13;100952.27;;;3.87;100.00
11413;BME280;5762;43.256;26.960;2024-02-15T03:24:42;100946.32;;;3.85;100.00
11413;BME280;5762;43.256;26.960;2024-02-15T03:27:10;100947.59;;;3.83;100.00
11413;BME280;5762;43.256;26.960;2024-02-15T03:29:39;100946.13;;;3.78;100.00
11413;BME280;5762;43.256;26.960;2024-02-15T03:32:08;100949.63;;;3.78;100.00
11413;BME280;5762;43.256;26.960;2024-02-15T03:34:37;100957.36;;;3.77;100.00
11413;BME280;5762;43.256;26.960;2024-02-15T03:37:06;100953.04;;;3.76;100.00
11413;BME280;5762;43.256;26.960;2024-02-15T03:39:34;100951.48;;;3.78;100.00
11413;BME280;5762;43.256;26.960;2024-02-15T03:42:04;100947.83;;;3.72;100.00
11413;BME280;5762;43.256;26.960;2024-02-15T03:44:32;100956.02;;;3.68;100.00
11413;BME280;5762;43.256;26.960;2024-02-15T03:47:01;100953.63;;;3.69;100.00
11413;BME280;5762;43.256;26.960;2024-02-15T03:49:29;100959.43;;;3.66;100.00
11413;BME280;5762;43.256;26.960;2024-02-15T03:51:58;100954.08;;;3.66;100.00
11413;BME280;5762;43.256;26.960;2024-02-15T03:54:27;100957.65;;;3.69;100.00
11413;BME280;5762;43.256;26.960;2024-02-15T03:56:56;100959.13;;;3.65;100.00
11413;BME280;5762;43.256;26.960;2024-02-15T03:59:25;100959.20;;;3.58;100.00
11413;BME280;5762;43.256;26.960;2024-02-15T04:01:55;100963.44;;;3.57;100.00
11413;BME280;5762;43.256;26.960;2024-02-15T04:04:24;100956.59;;;3.61;100.00
11413;BME280;5762;43.256;26.960;2024-02-15T04:06:54;100959.12;;;3.56;100.00
11413;BME280;5762;43.256;26.960;2024-02-15T04:09:23;100951.09;;;3.56;100.00
11413;BME280;5762;43.256;26.960;2024-02-15T04:11:52;100946.33;;;3.58;100.00
11413;BME280;5762;43.256;26.960;2024-02-15T04:14:20;100950.79;;;3.55;100.00
11413;BME280;5762;43.256;26.960;2024-02-15T04:16:48;100945.95;;;3.54;100.00
11413;BME280;5762;43.256;26.960;2024-02-15T04:19:17;100950.71;;;3.52;100.00
11413;BME280;5762;43.256;26.960;2024-02-15T04:21:48;100955.98;;;3.50;100.00
11413;BME280;5762;43.256;26.960;2024-02-15T04:24:17;100956.20;;;3.48;100.00
11413;BME280;5762;43.256;26.960;2024-02-15T04:26:47;100962.45;;;3.51;100.00
11413;BME280;5762;43.256;26.960;2024-02-15T04:29:15;100963.58;;;3.53;100.00
11413;BME280;5762;43.256;26.960;2024-02-15T04:31:44;100957.32;;;3.50;100.00
11413;BME280;5762;43.256;26.960;2024-02-15T04:34:13;100960.52;;;3.49;100.00
11413;BME280;5762;43.256;26.960;2024-02-15T04:36:41;100971.52;;;3.50;100.00
11413;BME280;5762;43.256;26.960;2024-02-15T04:39:10;100974.12;;;3.48;100.00
11413;BME280;5762;43.256;26.960;2024-02-15T04:41:38;100969.37;;;3.50;100.00
11413;BME280;5762;43.256;26.960;2024-02-15T04:44:06;100986.55;;;3.51;100.00
11413;BME280;5762;43.256;26.960;2024-02-15T04:46:36;100979.03;;;3.51;100.00
11413;BME280;5762;43.256;26.960;2024-02-15T04:49:04;100989.36;;;3.47;100.00
11413;BME280;5762;43.256;26.960;2024-02-15T04:51:34;100991.00;;;3.48;100.00
11413;BME280;5762;43.256;26.960;2024-02-15T04:54:02;100990.18;;;3.48;100.00
11413;BME280;5762;43.256;26.960;2024-02-15T04:56:30;100997.47;;;3.50;100.00
11413;BME280;5762;43.256;26.960;2024-02-15T04:58:58;101008.09;;;3.47;100.00
11413;BME280;5762;43.256;26.960;2024-02-15T05:01:27;101010.72;;;3.45;100.00
11413;BME280;5762;43.256;26.960;2024-02-15T05:03:56;101013.84;;;3.42;100.00
11413;BME280;5762;43.256;26.960;2024-02-15T05:06:25;101012.20;;;3.41;100.00
11413;BME280;5762;43.256;26.960;2024-02-15T05:08:54;101016.42;;;3.39;100.00
11413;BME280;5762;43.256;26.960;2024-02-15T05:11:22;101016.34;;;3.36;100.00
11413;BME280;5762;43.256;26.960;2024-02-15T05:13:51;101018.50;;;3.37;100.00
11413;BME280;5762;43.256;26.960;2024-02-15T05:16:19;101038.27;;;3.36;100.00
11413;BME280;5762;43.256;26.960;2024-02-15T05:18:48;101027.70;;;3.32;100.00
11413;BME280;5762;43.256;26.960;2024-02-15T05:21:17;101042.50;;;3.34;100.00
11413;BME280;5762;43.256;26.960;2024-02-15T05:23:46;101044.83;;;3.40;100.00
11413;BME280;5762;43.256;26.960;2024-02-15T05:26:16;101052.34;;;3.41;100.00
11413;BME280;5762;43.256;26.960;2024-02-15T05:28:46;101061.78;;;3.43;100.00
11413;BME280;5762;43.256;26.960;2024-02-15T05:31:18;101064.55;;;3.46;100.00
11413;BME280;5762;43.256;26.960;2024-02-15T05:33:44;101071.67;;;3.43;100.00
11413;BME280;5762;43.256;26.960;2024-02-15T05:36:13;101077.63;;;3.45;100.00
11413;BME280;5762;43.256;26.960;2024-02-15T05:38:42;101074.78;;;3.49;100.00
11413;BME280;5762;43.256;26.960;2024-02-15T05:41:11;101085.44;;;3.55;100.00
11413;BME280;5762;43.256;26.960;2024-02-15T05:43:39;101089.54;;;3.58;100.00
11413;BME280;5762;43.256;26.960;2024-02-15T05:46:09;101092.25;;;3.67;100.00
11413;BME280;5762;43.256;26.960;2024-02-15T05:48:38;101089.90;;;3.77;100.00
11413;BME280;5762;43.256;26.960;2024-02-15T05:51:07;101076.94;;;3.83;100.00
11413;BME280;5762;43.256;26.960;2024-02-15T05:53:35;101076.44;;;3.93;100.00
11413;BME280;5762;43.256;26.960;2024-02-15T05:56:05;101069.38;;;3.98;100.00
11413;BME280;5762;43.256;26.960;2024-02-15T05:58:36;101071.02;;;3.99;100.00
11413;BME280;5762;43.256;26.960;2024-02-15T06:01:05;101071.92;;;4.02;100.00
11413;BME280;5762;43.256;26.960;2024-02-15T06:03:34;101072.52;;;4.04;100.00
11413;BME280;5762;43.256;26.960;2024-02-15T06:06:04;101066.27;;;4.11;100.00
11413;BME280;5762;43.256;26.960;2024-02-15T06:08:36;101061.07;;;4.16;100.00
11413;BME280;5762;43.256;26.960;2024-02-15T06:11:04;101057.69;;;4.20;100.00
11413;BME280;5762;43.256;26.960;2024-02-15T06:13:33;101049.73;;;4.23;100.00
11413;BME280;5762;43.256;26.960;2024-02-15T06:16:03;101054.13;;;4.26;100.00
11413;BME280;5762;43.256;26.960;2024-02-15T06:18:33;101043.48;;;4.29;100.00
11413;BME280;5762;43.256;26.960;2024-02-15T06:21:02;101039.31;;;4.33;100.00
11413;BME280;5762;43.256;26.960;2024-02-15T06:23:31;101037.37;;;4.31;100.00
11413;BME280;5762;43.256;26.960;2024-02-15T06:26:00;101038.12;;;4.29;100.00
11413;BME280;5762;43.256;26.960;2024-02-15T06:28:29;101039.53;;;4.31;100.00
11413;BME280;5762;43.256;26.960;2024-02-15T06:31:15;101046.08;;;4.35;100.00
11413;BME280;5762;43.256;26.960;2024-02-15T06:34:00;101048.23;;;4.45;100.00
11413;BME280;5762;43.256;26.960;2024-02-15T06:36:46;101035.58;;;4.43;100.00
11413;BME280;5762;43.256;26.960;2024-02-15T06:39:32;101031.86;;;4.44;100.00
11413;BME280;5762;43.256;26.960;2024-02-15T06:42:13;101029.84;;;4.49;100.00
11413;BME280;5762;43.256;26.960;2024-02-15T06:44:40;101026.52;;;4.56;100.00
11413;BME280;5762;43.256;26.960;2024-02-15T06:47:08;101024.73;;;4.59;100.00
11413;BME280;5762;43.256;26.960;2024-02-15T06:49:38;101020.71;;;4.59;100.00
11413;BME280;5762;43.256;26.960;2024-02-15T06:52:10;101015.12;;;4.60;100.00
11413;BME280;5762;43.256;26.960;2024-02-15T06:54:39;101023.31;;;4.65;100.00
11413;BME280;5762;43.256;26.960;2024-02-15T06:57:08;101019.86;;;4.77;100.00
11413;BME280;5762;43.256;26.960;2024-02-15T06:59:37;101012.99;;;4.81;100.00
11413;BME280;5762;43.256;26.960;2024-02-15T07:02:06;101007.80;;;4.88;100.00
11413;BME280;5762;43.256;26.960;2024-02-15T07:04:35;101004.20;;;4.94;100.00
11413;BME280;5762;43.256;26.960;2024-02-15T07:07:04;101005.74;;;5.02;100.00
11413;BME280;5762;43.256;26.960;2024-02-15T07:09:32;100993.63;;;5.11;100.00
11413;BME280;5762;43.256;26.960;2024-02-15T07:12:00;100991.47;;;5.22;100.00
11413;BME280;5762;43.256;26.960;2024-02-15T07:14:29;100979.34;;;5.31;100.00
11413;BME280;5762;43.256;26.960;2024-02-15T07:16:57;100967.73;;;5.40;100.00
11413;BME280;5762;43.256;26.960;2024-02-15T07:19:25;100966.05;;;5.48;100.00
11413;BME280;5762;43.256;26.960;2024-02-15T07:21:54;100950.75;;;5.49;100.00
11413;BME280;5762;43.256;26.960;2024-02-15T07:24:22;100941.65;;;5.50;100.00
11413;BME280;5762;43.256;26.960;2024-02-15T07:26:51;100938.27;;;5.43;100.00
11413;BME280;5762;43.256;26.960;2024-02-15T07:29:19;100953.61;;;5.45;100.00
11413;BME280;5762;43.256;26.960;2024-02-15T07:31:47;100943.11;;;5.43;100.00
11413;BME280;5762;43.256;26.960;2024-02-15T07:34:16;100948.59;;;5.48;100.00
11413;BME280;5762;43.256;26.960;2024-02-15T07:36:45;100952.77;;;5.56;100.00
11413;BME280;5762;43.256;26.960;2024-02-15T07:39:14;100937.12;;;5.64;100.00
11413;BME280;5762;43.256;26.960;2024-02-15T07:41:43;100926.88;;;5.76;100.00
11413;BME280;5762;43.256;26.960;2024-02-15T07:44:12;100925.81;;;5.88;100.00
11413;BME280;5762;43.256;26.960;2024-02-15T07:46:41;100930.52;;;5.95;100.00
11413;BME280;5762;43.256;26.960;2024-02-15T07:49:09;100912.98;;;6.04;100.00
11413;BME280;5762;43.256;26.960;2024-02-15T07:51:38;100918.13;;;6.20;100.00
11413;BME280;5762;43.256;26.960;2024-02-15T07:54:08;100913.83;;;6.36;100.00
11413;BME280;5762;43.256;26.960;2024-02-15T07:56:36;100907.83;;;6.46;100.00
11413;BME280;5762;43.256;26.960;2024-02-15T07:59:05;100892.22;;;6.45;100.00
11413;BME280;5762;43.256;26.960;2024-02-15T08:01:34;100890.02;;;6.42;100.00
11413;BME280;5762;43.256;26.960;2024-02-15T08:04:02;100876.96;;;6.34;100.00
11413;BME280;5762;43.256;26.960;2024-02-15T08:06:31;100889.06;;;6.34;100.00
11413;BME280;5762;43.256;26.960;2024-02-15T08:08:59;100889.44;;;6.40;100.00
11413;BME280;5762;43.256;26.960;2024-02-15T08:11:28;100894.09;;;6.45;100.00
11413;BME280;5762;43.256;26.960;2024-02-15T08:13:57;100883.48;;;6.38;100.00
11413;BME280;5762;43.256;26.960;2024-02-15T08:16:25;100883.39;;;6.33;100.00
11413;BME280;5762;43.256;26.960;2024-02-15T08:18:56;100893.23;;;6.27;100.00
11413;BME280;5762;43.256;26.960;2024-02-15T08:21:27;100896.84;;;6.33;100.00
11413;BME280;5762;43.256;26.960;2024-02-15T08:23:56;100896.98;;;6.41;100.00
11413;BME280;5762;43.256;26.960;2024-02-15T08:26:25;100886.03;;;6.45;100.00
11413;BME280;5762;43.256;26.960;2024-02-15T08:28:53;100881.84;;;6.51;100.00
11413;BME280;5762;43.256;26.960;2024-02-15T08:31:22;100872.53;;;6.59;100.00
11413;BME280;5762;43.256;26.960;2024-02-15T08:33:50;100868.59;;;6.47;100.00
11413;BME280;5762;43.256;26.960;2024-02-15T08:36:19;100869.50;;;6.53;100.00
11413;BME280;5762;43.256;26.960;2024-02-15T08:38:48;100862.25;;;6.53;100.00
11413;BME280;5762;43.256;26.960;2024-02-15T08:41:17;100865.28;;;6.59;100.00
11413;BME280;5762;43.256;26.960;2024-02-15T08:43:46;100857.79;;;6.78;100.00
11413;BME280;5762;43.256;26.960;2024-02-15T08:46:14;100843.20;;;6.74;100.00
11413;BME280;5762;43.256;26.960;2024-02-15T08:48:42;100831.94;;;6.60;100.00
11413;BME280;5762;43.256;26.960;2024-02-15T08:51:11;100849.51;;;6.65;100.00
11413;BME280;5762;43.256;26.960;2024-02-15T08:53:40;100850.86;;;6.65;100.00
11413;BME280;5762;43.256;26.960;2024-02-15T08:56:08;100858.52;;;6.73;100.00
11413;BME280;5762;43.256;26.960;2024-02-15T08:58:37;100848.05;;;6.75;100.00
11413;BME280;5762;43.256;26.960;2024-02-15T09:01:05;100852.41;;;6.78;100.00
11413;BME280;5762;43.256;26.960;2024-02-15T09:03:34;100853.95;;;6.91;100.00
11413;BME280;5762;43.256;26.960;2024-02-15T09:06:02;100847.96;;;7.05;100.00
11413;BME280;5762;43.256;26.960;2024-02-15T09:08:31;100848.64;;;7.15;100.00
11413;BME280;5762;43.256;26.960;2024-02-15T09:10:59;100826.40;;;7.22;100.00
11413;BME280;5762;43.256;26.960;2024-02-15T09:13:27;100826.65;;;7.21;100.00
11413;BME280;5762;43.256;26.960;2024-02-15T09:15:56;100824.70;;;7.16;100.00
11413;BME280;5762;43.256;26.960;2024-02-15T09:18:25;100829.66;;;7.24;100.00
11413;BME280;5762;43.256;26.960;2024-02-15T09:20:54;100811.03;;;7.20;100.00
11413;BME280;5762;43.256;26.960;2024-02-15T09:23:23;100818.82;;;7.19;100.00
11413;BME280;5762;43.256;26.960;2024-02-15T09:25:51;100812.16;;;7.24;100.00
11413;BME280;5762;43.256;26.960;2024-02-15T09:28:19;100797.38;;;7.29;100.00
11413;BME280;5762;43.256;26.960;2024-02-15T09:30:50;100803.58;;;7.27;100.00
11413;BME280;5762;43.256;26.960;2024-02-15T09:33:21;100804.25;;;7.39;100.00
11413;BME280;5762;43.256;26.960;2024-02-15T09:35:50;100792.09;;;7.37;100.00
11413;BME280;5762;43.256;26.960;2024-02-15T09:38:18;100789.37;;;7.34;100.00
11413;BME280;5762;43.256;26.960;2024-02-15T09:40:50;100787.03;;;7.40;100.00
11413;BME280;5762;43.256;26.960;2024-02-15T09:43:18;100781.30;;;7.56;100.00
11413;BME280;5762;43.256;26.960;2024-02-15T09:45:47;100778.66;;;7.64;100.00
11413;BME280;5762;43.256;26.960;2024-02-15T09:48:15;100756.83;;;7.63;100.00
11413;BME280;5762;43.256;26.960;2024-02-15T09:50:45;100750.06;;;7.58;100.00
11413;BME280;5762;43.256;26.960;2024-02-15T09:53:13;100759.30;;;7.67;100.00
11413;BME280;5762;43.256;26.960;2024-02-15T09:55:42;100749.67;;;7.73;100.00
11413;BME280;5762;43.256;26.960;2024-02-15T09:58:12;100735.05;;;7.67;100.00
11413;BME280;5762;43.256;26.960;2024-02-15T10:00:40;100738.61;;;7.46;100.00
11413;BME280;5762;43.256;26.960;2024-02-15T10:03:08;100745.81;;;7.40;100.00
11413;BME280;5762;43.256;26.960;2024-02-15T10:05:38;100738.86;;;7.44;100.00
11413;BME280;5762;43.256;26.960;2024-02-15T10:08:08;100755.64;;;7.51;100.00
11413;BME280;5762;43.256;26.960;2024-02-15T10:10:38;100751.94;;;7.57;100.00
11413;BME280;5762;43.256;26.960;2024-02-15T10:13:06;100736.98;;;7.45;100.00
11413;BME280;5762;43.256;26.960;2024-02-15T10:15:36;100733.95;;;7.38;100.00
11413;BME280;5762;43.256;26.960;2024-02-15T10:18:09;100751.45;;;7.38;100.00
11413;BME280;5762;43.256;26.960;2024-02-15T10:20:34;100746.41;;;7.45;100.00
11413;BME280;5762;43.256;26.960;2024-02-15T10:25:32;100732.78;;;7.54;100.00
11413;BME280;5762;43.256;26.960;2024-02-15T10:28:07;100745.45;;;7.56;100.00
11413;BME280;5762;43.256;26.960;2024-02-15T10:30:36;100749.64;;;7.71;100.00
11413;BME280;5762;43.256;26.960;2024-02-15T10:33:06;100732.97;;;7.47;100.00
11413;BME280;5762;43.256;26.960;2024-02-15T10:35:35;100745.63;;;7.47;100.00
11413;BME280;5762;43.256;26.960;2024-02-15T10:38:10;100740.52;;;7.48;100.00
11413;BME280;5762;43.256;26.960;2024-02-15T10:40:37;100747.72;;;7.42;100.00
11413;BME280;5762;43.256;26.960;2024-02-15T10:43:06;100760.16;;;7.46;100.00
11413;BME280;5762;43.256;26.960;2024-02-15T10:45:35;100770.89;;;7.67;100.00
11413;BME280;5762;43.256;26.960;2024-02-15T10:48:09;100761.81;;;7.76;100.00
11413;BME280;5762;43.256;26.960;2024-02-15T10:50:40;100751.21;;;7.67;100.00
11413;BME280;5762;43.256;26.960;2024-02-15T10:53:13;100760.89;;;7.65;100.00
11413;BME280;5762;43.256;26.960;2024-02-15T10:58:23;100758.80;;;7.97;100.00
11413;BME280;5762;43.256;26.960;2024-02-15T11:00:53;100745.20;;;7.84;100.00
11413;BME280;5762;43.256;26.960;2024-02-15T11:03:29;100741.41;;;7.83;100.00
11413;BME280;5762;43.256;26.960;2024-02-15T11:05:54;100747.94;;;7.89;100.00
11413;BME280;5762;43.256;26.960;2024-02-15T11:08:24;100729.19;;;8.04;100.00
11413;BME280;5762;43.256;26.960;2024-02-15T11:10:52;100713.03;;;8.07;100.00
11413;BME280;5762;43.256;26.960;2024-02-15T11:13:22;100711.71;;;8.10;100.00
11413;BME280;5762;43.256;26.960;2024-02-15T11:15:51;100710.12;;;8.14;100.00
11413;BME280;5762;43.256;26.960;2024-02-15T11:21:06;100671.07;;;8.19;100.00
11413;BME280;5762;43.256;26.960;2024-02-15T11:23:34;100650.05;;;8.21;100.00
11413;BME280;5762;43.256;26.960;2024-02-15T11:26:02;100639.06;;;8.30;100.00
11413;BME280;5762;43.256;26.960;2024-02-15T11:28:37;100621.31;;;8.39;100.00
11413;BME280;5762;43.256;26.960;2024-02-15T11:31:09;100603.34;;;8.57;100.00
11413;BME280;5762;43.256;26.960;2024-02-15T11:33:39;100568.77;;;8.49;100.00
11413;BME280;5762;43.256;26.960;2024-02-15T11:36:09;100563.34;;;8.42;100.00
11413;BME280;5762;43.256;26.960;2024-02-15T11:38:41;100547.71;;;8.46;100.00
11413;BME280;5762;43.256;26.960;2024-02-15T11:41:09;100545.58;;;8.51;100.00
11413;BME280;5762;43.256;26.960;2024-02-15T11:43:45;100538.05;;;8.58;100.00
11413;BME280;5762;43.256;26.960;2024-02-15T11:46:14;100530.50;;;8.67;100.00
11413;BME280;5762;43.256;26.960;2024-02-15T11:48:44;100511.34;;;8.59;100.00
11413;BME280;5762;43.256;26.960;2024-02-15T11:54:00;100501.66;;;8.81;100.00
11413;BME280;5762;43.256;26.960;2024-02-15T11:56:29;100477.63;;;8.77;100.00
11413;BME280;5762;43.256;26.960;2024-02-15T11:59:04;100462.52;;;8.83;100.00
11413;BME280;5762;43.256;26.960;2024-02-15T12:01:36;100471.17;;;8.88;100.00
11413;BME280;5762;43.256;26.960;2024-02-15T12:04:21;100461.70;;;8.78;100.00
11413;BME280;5762;43.256;26.960;2024-02-15T12:07:06;100450.91;;;8.75;100.00
11413;BME280;5762;43.256;26.960;2024-02-15T12:09:57;100431.21;;;8.80;100.00
11413;BME280;5762;43.256;26.960;2024-02-15T12:12:37;100433.38;;;8.90;100.00
11413;BME280;5762;43.256;26.960;2024-02-15T12:15:23;100419.86;;;9.08;100.00
11413;BME280;5762;43.256;26.960;2024-02-15T12:18:17;100414.19;;;9.10;100.00
11413;BME280;5762;43.256;26.960;2024-02-15T12:21:00;100411.25;;;8.93;100.00
11413;BME280;5762;43.256;26.960;2024-02-15T12:23:29;100413.13;;;8.78;100.00
11413;BME280;5762;43.256;26.960;2024-02-15T12:26:01;100420.97;;;8.64;100.00
11413;BME280;5762;43.256;26.960;2024-02-15T12:28:30;100441.72;;;8.53;100.00
11413;BME280;5762;43.256;26.960;2024-02-15T12:30:58;100432.83;;;8.63;100.00
11413;BME280;5762;43.256;26.960;2024-02-15T12:33:26;100418.52;;;8.72;100.00
11413;BME280;5762;43.256;26.960;2024-02-15T12:36:05;100425.80;;;8.74;100.00
11413;BME280;5762;43.256;26.960;2024-02-15T12:38:34;100410.42;;;8.70;100.00
11413;BME280;5762;43.256;26.960;2024-02-15T12:41:03;100373.99;;;8.75;100.00
11413;BME280;5762;43.256;26.960;2024-02-15T12:43:31;100387.48;;;8.52;100.00
11413;BME280;5762;43.256;26.960;2024-02-15T12:46:00;100409.87;;;8.68;100.00
11413;BME280;5762;43.256;26.960;2024-02-15T12:48:28;100408.00;;;8.79;100.00
11413;BME280;5762;43.256;26.960;2024-02-15T12:50:56;100388.83;;;8.67;100.00
11413;BME280;5762;43.256;26.960;2024-02-15T12:53:25;100388.30;;;8.76;100.00
11413;BME280;5762;43.256;26.960;2024-02-15T12:55:54;100399.91;;;8.84;100.00
11413;BME280;5762;43.256;26.960;2024-02-15T12:58:22;100394.78;;;8.87;100.00
11413;BME280;5762;43.256;26.960;2024-02-15T13:00:54;100387.76;;;8.84;100.00
11413;BME280;5762;43.256;26.960;2024-02-15T13:03:23;100402.34;;;8.93;100.00
11413;BME280;5762;43.256;26.960;2024-02-15T13:05:51;100393.70;;;8.93;100.00
11413;BME280;5762;43.256;26.960;2024-02-15T13:08:19;100383.45;;;8.95;100.00
11413;BME280;5762;43.256;26.960;2024-02-15T13:10:47;100380.70;;;9.08;100.00
11413;BME280;5762;43.256;26.960;2024-02-15T13:13:16;100370.72;;;9.01;100.00